Time;durP1;ratioP1;P1;durP2;ratioP2;P2;SDS_P1;SDS_P2;PMS_P1;PMS_P2;Temp;Humidity;BMP_temperature;BMP_pressure;BME280_temperature;BME280_humidity;BME280_pressure;Samples;Min_cycle;Max_cycle;Signal;HPM_P1;HPM_P2
2022/01/23 00:00:04;;;;;;;43.28;25.95;;;1.00;99.90;;;;;;5082489;28;20043;-63
2022/01/23 00:02:34;;;;;;;41.63;22.15;;;1.10;99.90;;;;;;5093027;28;20497;-63
2022/01/23 00:05:07;;;;;;;40.63;21.63;;;1.10;99.90;;;;;;5093341;28;20028;-63
2022/01/23 00:07:34;;;;;;;52.40;30.60;;;0.90;99.90;;;;;;5094326;28;20028;-63
2022/01/23 00:10:01;;;;;;;69.50;39.05;;;0.90;99.90;;;;;;5094183;28;20040;-63
2022/01/23 00:12:31;;;;;;;74.68;40.47;;;1.00;99.90;;;;;;5076458;28;20035;-63
2022/01/23 00:17:41;;;;;;;87.40;47.40;;;0.90;99.90;;;;;;5093642;28;20085;-62
2022/01/23 00:20:12;;;;;;;85.40;46.80;;;0.90;99.90;;;;;;5094080;28;20039;-62
2022/01/23 00:23:00;;;;;;;100.05;54.30;;;0.90;99.90;;;;;;5094115;28;20059;-62
2022/01/23 00:30:59;;;;;;;97.57;51.47;;;0.80;99.90;;;;;;5094526;28;20035;-62
2022/01/23 00:33:26;;;;;;;93.85;53.15;;;0.80;99.90;;;;;;5075740;28;20039;-62
2022/01/23 00:35:53;;;;;;;101.80;54.90;;;0.80;99.90;;;;;;5073567;28;20044;-62
2022/01/23 00:38:19;;;;;;;89.20;50.60;;;0.80;99.90;;;;;;5073938;28;20058;-62
2022/01/23 00:40:46;;;;;;;80.15;44.08;;;0.90;99.90;;;;;;5073515;28;20025;-63
2022/01/23 00:43:30;;;;;;;86.25;47.63;;;0.90;99.90;;;;;;5089111;28;20078;-62
2022/01/23 00:46:22;;;;;;;89.68;50.15;;;1.00;99.90;;;;;;5093919;28;20036;-62
2022/01/23 00:51:26;;;;;;;125.88;72.10;;;0.90;99.90;;;;;;5093392;28;20050;-63
2022/01/23 00:53:56;;;;;;;142.38;79.57;;;0.90;99.90;;;;;;5091988;28;20555;-63
2022/01/23 00:56:23;;;;;;;143.38;82.28;;;0.90;99.90;;;;;;5092689;28;20029;-63
2022/01/23 00:58:49;;;;;;;138.65;78.13;;;0.90;99.90;;;;;;5093482;28;20031;-62
2022/01/23 01:01:16;;;;;;;126.88;73.22;;;0.80;99.90;;;;;;5092859;28;20074;-62
2022/01/23 01:03:42;;;;;;;140.88;82.03;;;0.70;99.90;;;;;;5092740;28;20089;-62
2022/01/23 01:06:09;;;;;;;129.57;73.93;;;0.80;99.90;;;;;;5093190;28;20028;-62
2022/01/23 01:08:35;;;;;;;115.72;67.22;;;0.80;99.90;;;;;;5091949;28;20040;-62
2022/01/23 01:11:55;;;;;;;87.47;53.00;;;0.80;99.90;;;;;;5078687;28;20029;-63
2022/01/23 01:35:31;;;;;;;95.15;55.53;;;0.80;99.90;;;;;;5010290;28;20060;-64
2022/01/23 01:37:58;;;;;;;93.38;51.88;;;0.70;99.90;;;;;;5051928;28;20036;-64
2022/01/23 01:40:25;;;;;;;114.72;59.95;;;0.70;99.90;;;;;;5090481;28;20028;-64
2022/01/23 01:42:51;;;;;;;108.55;61.03;;;0.80;99.90;;;;;;5074263;28;20028;-64
2022/01/23 01:45:25;;;;;;;112.55;64.20;;;0.70;99.90;;;;;;5092117;28;20028;-64
2022/01/23 01:47:53;;;;;;;113.97;65.22;;;0.70;99.90;;;;;;5090692;28;20466;-65
2022/01/23 01:50:19;;;;;;;121.38;69.90;;;0.80;99.90;;;;;;5089560;28;20440;-64
2022/01/23 01:52:46;;;;;;;115.05;65.30;;;0.70;99.90;;;;;;5088036;28;20032;-64
2022/01/23 01:55:18;;;;;;;117.22;67.15;;;0.70;99.90;;;;;;5095953;28;20032;-63
2022/01/23 01:57:52;;;;;;;112.95;63.25;;;0.60;99.90;;;;;;5096909;28;20032;-64
2022/01/23 02:11:40;;;;;;;79.80;42.92;;;0.60;99.90;;;;;;5023074;28;20434;-63
2022/01/23 02:13:57;;;;;;;70.65;41.58;;;0.70;99.90;;;;;;5085246;28;20029;-63
2022/01/23 02:51:33;;;;;;;55.70;29.67;;;0.80;99.90;;;;;;5074692;28;20102;-62
2022/01/23 02:56:48;;;;;;;55.63;31.08;;;0.80;99.90;;;;;;5077282;28;20532;-63
2022/01/23 02:59:25;;;;;;;55.65;29.70;;;0.80;99.90;;;;;;5070805;28;20390;-63
2022/01/23 03:02:14;;;;;;;54.83;28.80;;;0.90;99.90;;;;;;5075987;28;20052;-63
2022/01/23 03:04:50;;;;;;;48.72;26.92;;;0.90;99.90;;;;;;5072277;28;20028;-64
2022/01/23 03:07:51;;;;;;;52.70;28.90;;;0.90;99.90;;;;;;5044641;28;20091;-63
2022/01/23 03:10:24;;;;;;;53.47;27.98;;;0.90;99.90;;;;;;5070168;28;20032;-62
2022/01/23 03:28:50;;;;;;;43.58;26.10;;;1.10;99.90;;;;;;5074602;28;20418;-64
2022/01/23 03:33:45;;;;;;;43.53;26.25;;;1.00;99.90;;;;;;5073070;28;20103;-63
2022/01/23 03:36:11;;;;;;;45.85;25.10;;;1.00;99.90;;;;;;5055654;28;20064;-63
2022/01/23 03:38:37;;;;;;;44.25;24.90;;;1.20;99.90;;;;;;5074148;28;20044;-62
2022/01/23 03:41:04;;;;;;;56.28;30.63;;;1.20;99.90;;;;;;5073452;28;20074;-63
2022/01/23 03:43:33;;;;;;;63.90;38.22;;;1.20;99.90;;;;;;5055178;28;20371;-63
2022/01/23 03:49:33;;;;;;;66.78;38.67;;;1.00;99.90;;;;;;5054594;28;20122;-63
2022/01/23 03:52:05;;;;;;;102.63;54.90;;;1.10;99.90;;;;;;5060486;28;20474;-62
2022/01/23 03:54:32;;;;;;;102.57;58.45;;;1.20;99.90;;;;;;5054479;28;20410;-62
2022/01/23 03:57:00;;;;;;;113.15;62.83;;;1.10;99.90;;;;;;5072385;28;20041;-63
2022/01/23 03:59:27;;;;;;;101.22;58.55;;;0.90;99.90;;;;;;5073151;28;20163;-64
2022/01/23 04:01:53;;;;;;;97.38;56.92;;;0.90;99.90;;;;;;5080475;28;20054;-62
2022/01/23 04:07:25;;;;;;;95.95;53.22;;;0.80;99.90;;;;;;5049761;28;20439;-63
2022/01/23 04:09:51;;;;;;;95.80;53.75;;;0.70;99.90;;;;;;5058142;28;20482;-63
2022/01/23 04:14:59;;;;;;;86.88;49.22;;;1.00;99.90;;;;;;5076671;28;20398;-67
2022/01/23 04:33:49;;;;;;;57.50;34.95;;;0.90;99.90;;;;;;5071914;28;20590;-63
2022/01/23 05:01:05;;;;;;;127.32;77.15;;;1.50;99.90;;;;;;5080104;27;20074;-64
2022/01/23 05:06:09;;;;;;;112.00;69.05;;;2.20;99.90;;;;;;5089970;28;20353;-62
2022/01/23 05:08:37;;;;;;;124.45;74.38;;;2.10;99.90;;;;;;5072692;28;20035;-63
2022/01/23 05:11:06;;;;;;;124.25;71.20;;;1.70;99.90;;;;;;5073309;28;20389;-62
2022/01/23 05:13:33;;;;;;;116.82;69.82;;;2.10;99.90;;;;;;5052944;28;20038;-62
2022/01/23 05:15:59;;;;;;;116.85;68.30;;;2.40;99.90;;;;;;5094867;28;20043;-62
2022/01/23 05:18:26;;;;;;;114.55;66.80;;;2.50;99.90;;;;;;5090924;28;20050;-63
2022/01/23 05:21:03;;;;;;;120.25;69.18;;;2.40;99.90;;;;;;5091323;28;20075;-64
2022/01/23 05:23:29;;;;;;;121.68;74.18;;;2.30;99.90;;;;;;5088398;28;20033;-63
2022/01/23 05:25:56;;;;;;;126.95;74.15;;;2.10;99.90;;;;;;5089071;28;20043;-62
2022/01/23 05:28:22;;;;;;;128.98;74.65;;;2.00;99.90;;;;;;5089998;28;20123;-65
2022/01/23 05:30:48;;;;;;;128.85;77.43;;;1.90;99.90;;;;;;5068545;28;20070;-63
2022/01/23 05:33:14;;;;;;;134.40;80.97;;;2.10;99.90;;;;;;5089663;28;20611;-63
2022/01/23 05:35:40;;;;;;;126.72;79.85;;;2.10;99.90;;;;;;5090332;28;20060;-63
2022/01/23 05:38:06;;;;;;;123.20;74.13;;;1.80;99.90;;;;;;5091192;28;20486;-62
2022/01/23 05:40:33;;;;;;;126.30;71.28;;;1.80;99.90;;;;;;5073847;28;20055;-63
2022/01/23 05:42:59;;;;;;;117.68;71.85;;;2.00;99.90;;;;;;5073144;28;20118;-63
2022/01/23 05:45:25;;;;;;;114.72;67.15;;;2.00;99.90;;;;;;5090924;28;20501;-63
2022/01/23 05:47:51;;;;;;;110.30;66.25;;;1.90;99.90;;;;;;5089482;28;20103;-63
2022/01/23 05:50:17;;;;;;;114.00;67.63;;;2.30;99.90;;;;;;5082858;28;20268;-62
2022/01/23 05:52:43;;;;;;;112.50;65.55;;;2.50;99.90;;;;;;5073090;28;20032;-63
2022/01/23 05:55:11;;;;;;;105.40;60.58;;;2.50;99.90;;;;;;5091053;28;20505;-64
2022/01/23 05:57:37;;;;;;;113.25;64.32;;;2.40;99.90;;;;;;5070948;28;20497;-62
2022/01/23 06:00:04;;;;;;;114.68;64.72;;;2.40;99.90;;;;;;5072385;28;20086;-63
2022/01/23 06:02:30;;;;;;;120.60;69.00;;;2.50;99.90;;;;;;5073331;28;20136;-63
2022/01/23 06:04:56;;;;;;;111.25;66.50;;;2.40;99.90;;;;;;5088715;28;20501;-63
2022/01/23 06:07:23;;;;;;;118.57;67.68;;;2.40;99.90;;;;;;5072775;28;20059;-63
2022/01/23 06:09:49;;;;;;;121.68;71.38;;;2.60;99.90;;;;;;5089866;28;20032;-63
2022/01/23 06:12:15;;;;;;;128.95;73.50;;;2.70;99.90;;;;;;5091302;28;20042;-64
2022/01/23 06:14:41;;;;;;;118.20;71.75;;;2.50;99.90;;;;;;5088715;28;20032;-63
2022/01/23 06:17:07;;;;;;;121.60;71.60;;;2.50;99.90;;;;;;5086656;28;20405;-64
2022/01/23 06:19:35;;;;;;;119.65;69.43;;;2.50;99.90;;;;;;5105059;28;20552;-63
2022/01/23 06:22:01;;;;;;;126.20;75.13;;;2.60;99.90;;;;;;5075687;28;20405;-64
2022/01/23 06:24:30;;;;;;;117.63;69.10;;;2.70;99.90;;;;;;5066097;28;20040;-64
2022/01/23 06:26:58;;;;;;;106.80;64.13;;;2.60;99.90;;;;;;5088854;28;20181;-62
2022/01/23 06:29:26;;;;;;;107.88;64.00;;;2.60;99.90;;;;;;5087825;28;20474;-63
2022/01/23 06:31:57;;;;;;;108.28;66.20;;;2.70;99.90;;;;;;5087877;28;20739;-61
2022/01/23 06:34:24;;;;;;;104.82;60.75;;;3.00;99.90;;;;;;5089046;28;20108;-62
2022/01/23 06:36:52;;;;;;;100.25;62.13;;;2.70;99.90;;;;;;5071803;28;20031;-62
2022/01/23 06:39:19;;;;;;;105.10;64.68;;;2.80;99.90;;;;;;5086652;28;20043;-63
2022/01/23 06:41:45;;;;;;;115.32;66.35;;;2.90;99.90;;;;;;5091225;28;20028;-63
2022/01/23 06:44:11;;;;;;;107.60;63.83;;;2.90;99.90;;;;;;5091811;28;20024;-63
2022/01/23 06:46:41;;;;;;;101.45;60.85;;;2.80;99.90;;;;;;5093105;28;22297;-62
2022/01/23 06:49:09;;;;;;;102.32;60.90;;;2.90;99.90;;;;;;5094029;28;20117;-62
2022/01/23 06:51:35;;;;;;;104.13;61.42;;;2.90;99.90;;;;;;5095648;28;20417;-61
2022/01/23 06:54:01;;;;;;;104.20;60.63;;;3.10;99.90;;;;;;5077891;28;20067;-61
2022/01/23 06:56:28;;;;;;;102.93;59.75;;;3.20;99.90;;;;;;5070395;28;20040;-63
2022/01/23 06:58:54;;;;;;;113.70;63.50;;;3.30;99.90;;;;;;5093407;28;20043;-63
2022/01/23 07:01:21;;;;;;;97.15;58.22;;;2.90;99.90;;;;;;5093610;28;20154;-63
2022/01/23 07:03:47;;;;;;;102.18;61.63;;;2.90;99.90;;;;;;5075072;28;20032;-61
2022/01/23 07:06:13;;;;;;;93.97;53.45;;;3.30;99.90;;;;;;5078194;28;20036;-62
2022/01/23 07:08:39;;;;;;;90.88;52.65;;;3.00;99.90;;;;;;5095493;28;20031;-63
2022/01/23 07:11:05;;;;;;;96.25;51.90;;;3.10;99.90;;;;;;5076215;28;20032;-62
2022/01/23 07:13:31;;;;;;;93.00;54.28;;;3.10;99.90;;;;;;5075841;28;20398;-61
2022/01/23 07:15:57;;;;;;;86.63;48.63;;;3.00;99.90;;;;;;5094924;28;20064;-62
2022/01/23 07:18:23;;;;;;;87.70;48.58;;;3.30;99.90;;;;;;5094333;28;20036;-62
2022/01/23 07:20:50;;;;;;;90.78;51.65;;;3.40;99.90;;;;;;5074457;28;20039;-64
2022/01/23 07:23:22;;;;;;;90.32;53.70;;;3.50;99.90;;;;;;5091635;28;20038;-63
2022/01/23 07:25:49;;;;;;;86.15;48.97;;;3.80;99.90;;;;;;5074155;28;20039;-62
2022/01/23 07:28:18;;;;;;;82.97;47.65;;;3.50;99.90;;;;;;5089853;28;20032;-63
2022/01/23 07:33:17;;;;;;;68.43;38.75;;;3.40;99.90;;;;;;5096914;28;20027;-62
2022/01/23 07:35:43;;;;;;;60.13;35.13;;;3.60;99.90;;;;;;5082465;28;20024;-63
2022/01/23 07:38:11;;;;;;;58.67;32.58;;;3.60;99.90;;;;;;5080655;28;20032;-62
2022/01/23 07:40:38;;;;;;;66.85;40.97;;;3.40;99.90;;;;;;5095660;28;20052;-63
2022/01/23 07:43:04;;;;;;;66.82;38.88;;;3.50;99.90;;;;;;5080999;28;20213;-62
2022/01/23 07:45:30;;;;;;;71.20;43.90;;;3.30;99.90;;;;;;5098690;28;20043;-61
2022/01/23 07:47:56;;;;;;;77.18;42.95;;;3.30;99.90;;;;;;5103618;28;20428;-63
2022/01/23 07:50:23;;;;;;;82.78;44.20;;;3.70;99.90;;;;;;5104487;28;20049;-62
2022/01/23 07:52:49;;;;;;;66.00;37.80;;;4.00;99.90;;;;;;5102170;28;20056;-63
2022/01/23 07:55:16;;;;;;;44.15;26.83;;;3.70;99.90;;;;;;5102895;28;20035;-63
2022/01/23 07:57:43;;;;;;;39.28;24.70;;;3.40;99.90;;;;;;5086113;28;20027;-63
2022/01/23 08:00:11;;;;;;;35.65;20.63;;;3.30;99.90;;;;;;5093829;28;20032;-63
2022/01/23 08:02:37;;;;;;;38.60;24.92;;;3.00;99.90;;;;;;5094161;28;20040;-63
2022/01/23 08:05:05;;;;;;;48.97;30.27;;;3.10;99.90;;;;;;5076337;28;20120;-61
2022/01/23 08:07:31;;;;;;;63.20;36.92;;;3.10;99.90;;;;;;5093539;28;20107;-65
2022/01/23 08:10:00;;;;;;;59.92;36.55;;;3.10;99.90;;;;;;5075858;28;20036;-64
2022/01/23 08:12:29;;;;;;;60.28;35.40;;;3.00;99.90;;;;;;5097630;28;20032;-63
2022/01/23 08:14:56;;;;;;;55.13;34.55;;;2.70;99.90;;;;;;5079112;28;20051;-65
2022/01/23 08:17:25;;;;;;;55.70;31.98;;;2.50;99.90;;;;;;5103299;28;20052;-62
2022/01/23 08:19:56;;;;;;;56.10;34.28;;;2.80;99.90;;;;;;5101798;28;20024;-62
2022/01/23 08:22:24;;;;;;;56.60;34.13;;;2.90;99.90;;;;;;5099891;28;20028;-64
2022/01/23 08:24:52;;;;;;;55.22;33.10;;;2.70;99.90;;;;;;5086309;28;20036;-63
2022/01/23 08:27:19;;;;;;;53.00;32.78;;;2.80;99.90;;;;;;5099867;28;20521;-63
2022/01/23 08:29:45;;;;;;;55.42;32.65;;;2.60;99.90;;;;;;5102090;28;20028;-64
2022/01/23 08:32:12;;;;;;;52.63;32.25;;;2.70;99.90;;;;;;5099872;28;20024;-63
2022/01/23 08:34:39;;;;;;;60.75;34.15;;;3.00;99.90;;;;;;5079835;28;20039;-64
2022/01/23 08:37:07;;;;;;;60.60;37.97;;;3.10;99.90;;;;;;5100696;28;20032;-64
2022/01/23 08:39:36;;;;;;;65.40;37.88;;;2.80;99.90;;;;;;5080472;28;20101;-64
2022/01/23 08:42:15;;;;;;;63.13;39.55;;;2.60;99.90;;;;;;5097672;28;20035;-64
2022/01/23 08:44:42;;;;;;;64.40;37.90;;;3.00;99.90;;;;;;5077212;28;20028;-64
2022/01/23 08:47:08;;;;;;;71.65;43.03;;;2.90;99.90;;;;;;5092678;28;20028;-63
2022/01/23 08:49:40;;;;;;;71.18;41.60;;;2.90;99.90;;;;;;5092584;28;20491;-63
2022/01/23 08:52:06;;;;;;;70.90;44.10;;;3.00;99.90;;;;;;5072645;28;20028;-63
2022/01/23 08:54:32;;;;;;;68.38;42.92;;;3.00;99.90;;;;;;5090370;28;20032;-64
2022/01/23 08:56:59;;;;;;;72.70;44.50;;;2.70;99.90;;;;;;5092697;28;20047;-64
2022/01/23 08:59:25;;;;;;;74.45;43.78;;;2.60;99.90;;;;;;5092404;28;20028;-63
2022/01/23 09:01:53;;;;;;;70.72;43.67;;;2.50;99.90;;;;;;5081312;28;20620;-64
2022/01/23 09:04:19;;;;;;;76.70;46.40;;;2.10;99.90;;;;;;5072354;28;20032;-64
2022/01/23 09:06:47;;;;;;;72.43;44.47;;;1.90;99.90;;;;;;5070605;28;20074;-64
2022/01/23 09:09:29;;;;;;;76.22;45.03;;;2.20;99.90;;;;;;5068618;28;20040;-64
2022/01/23 09:12:03;;;;;;;73.93;41.22;;;2.50;99.90;;;;;;5069622;28;20502;-63
2022/01/23 09:14:30;;;;;;;67.25;41.17;;;2.60;99.90;;;;;;5070488;28;20578;-62
2022/01/23 09:16:57;;;;;;;62.40;37.78;;;2.60;99.90;;;;;;5053493;28;20123;-62
2022/01/23 09:19:25;;;;;;;69.15;38.75;;;2.60;99.90;;;;;;5072773;28;20040;-62
2022/01/23 09:21:52;;;;;;;62.88;38.75;;;2.60;99.90;;;;;;5047609;28;20035;-63
2022/01/23 09:24:20;;;;;;;64.68;41.22;;;2.90;99.90;;;;;;5071836;28;20096;-63
2022/01/23 09:26:53;;;;;;;66.22;39.58;;;3.00;99.90;;;;;;5070813;28;20478;-64
2022/01/23 09:29:30;;;;;;;53.17;34.63;;;2.90;99.90;;;;;;5070824;28;20028;-62
2022/01/23 09:31:57;;;;;;;62.97;37.40;;;2.70;99.90;;;;;;5071819;28;20494;-62
2022/01/23 09:34:27;;;;;;;60.03;38.40;;;2.70;99.90;;;;;;5069653;28;20036;-63
2022/01/23 09:36:56;;;;;;;65.10;39.63;;;2.70;99.90;;;;;;5053543;28;20060;-63
2022/01/23 09:39:22;;;;;;;68.88;39.58;;;2.90;99.90;;;;;;5071574;28;20032;-63
2022/01/23 09:41:57;;;;;;;72.47;41.28;;;2.80;99.90;;;;;;5069722;28;20104;-63
2022/01/23 09:44:26;;;;;;;60.70;37.08;;;2.90;99.90;;;;;;5070296;28;20029;-63
2022/01/23 09:46:55;;;;;;;57.38;36.17;;;2.70;99.90;;;;;;5053476;28;20108;-62
2022/01/23 09:49:22;;;;;;;62.22;37.70;;;2.60;99.90;;;;;;5071963;28;20037;-63
2022/01/23 09:51:50;;;;;;;62.08;37.40;;;2.40;99.90;;;;;;5054268;28;20071;-63
2022/01/23 09:54:17;;;;;;;65.18;38.40;;;2.60;99.90;;;;;;5068083;28;20029;-63
2022/01/23 09:56:44;;;;;;;65.03;37.17;;;2.70;99.90;;;;;;5070330;28;20635;-62
2022/01/23 09:59:18;;;;;;;70.93;39.40;;;2.70;99.90;;;;;;5071541;28;20037;-63
2022/01/23 10:01:45;;;;;;;57.33;37.15;;;2.60;99.90;;;;;;5094148;28;20070;-63
2022/01/23 10:04:12;;;;;;;69.82;40.78;;;2.50;99.90;;;;;;5070458;28;20028;-63
2022/01/23 10:06:38;;;;;;;66.57;39.38;;;2.50;99.90;;;;;;5092086;28;20111;-62
2022/01/23 10:09:08;;;;;;;66.70;39.72;;;2.60;99.90;;;;;;5089604;28;20078;-63
2022/01/23 10:11:39;;;;;;;64.53;40.40;;;2.40;99.90;;;;;;5088953;28;20032;-64
2022/01/23 10:14:05;;;;;;;73.97;41.92;;;2.60;99.90;;;;;;5087142;28;20039;-63
2022/01/23 10:16:33;;;;;;;69.07;40.72;;;2.50;99.90;;;;;;5092277;28;20041;-64
2022/01/23 10:19:01;;;;;;;70.88;43.28;;;2.50;99.90;;;;;;5076255;28;20036;-63
2022/01/23 10:21:31;;;;;;;72.32;43.78;;;2.50;99.90;;;;;;5095724;28;20024;-63
2022/01/23 10:23:58;;;;;;;72.82;42.60;;;2.30;99.90;;;;;;5095522;28;20038;-64
2022/01/23 10:26:43;;;;;;;64.15;39.42;;;2.20;99.90;;;;;;5077222;28;20028;-62
2022/01/23 10:29:18;;;;;;;75.97;44.50;;;2.20;99.90;;;;;;5089738;28;20123;-64
2022/01/23 10:32:23;;;;;;;65.20;39.75;;;2.20;99.90;;;;;;5094334;28;20158;-62
2022/01/23 10:35:00;;;;;;;60.55;37.20;;;2.40;99.90;;;;;;5094325;28;20063;-62
2022/01/23 10:37:43;;;;;;;66.60;36.35;;;2.30;99.90;;;;;;5093989;28;20521;-62
2022/01/23 10:40:30;;;;;;;63.10;35.45;;;2.30;99.90;;;;;;5092157;28;20036;-64
2022/01/23 10:48:55;;;;;;;58.83;34.55;;;2.30;99.90;;;;;;5089549;28;20024;-64
2022/01/23 10:51:31;;;;;;;57.35;33.88;;;2.20;99.90;;;;;;5094177;28;20028;-63
2022/01/23 10:54:15;;;;;;;55.90;33.28;;;2.30;99.90;;;;;;5072510;28;20398;-63
2022/01/23 10:56:57;;;;;;;60.28;34.50;;;2.40;99.90;;;;;;5071263;28;20028;-63
2022/01/23 10:59:24;;;;;;;59.67;35.85;;;2.10;99.90;;;;;;5091583;28;20032;-64
2022/01/23 11:02:06;;;;;;;52.55;33.00;;;2.10;99.90;;;;;;5085268;28;20490;-63
2022/01/23 11:04:54;;;;;;;54.28;32.22;;;2.10;99.90;;;;;;5079752;28;20036;-63
2022/01/23 11:07:21;;;;;;;51.67;30.88;;;1.80;99.90;;;;;;5056425;28;20031;-63
2022/01/23 11:09:48;;;;;;;43.70;27.10;;;1.90;99.90;;;;;;5082472;28;20032;-63
2022/01/23 11:18:05;;;;;;;56.03;33.05;;;1.80;99.90;;;;;;5078610;28;20035;-63
2022/01/23 11:20:39;;;;;;;52.03;30.08;;;2.10;99.90;;;;;;5078868;28;20482;-62
2022/01/23 11:23:29;;;;;;;55.83;32.67;;;2.00;99.90;;;;;;5081981;28;20028;-62
2022/01/23 11:25:55;;;;;;;58.95;33.83;;;1.90;99.90;;;;;;5058692;28;20131;-63
2022/01/23 11:28:45;;;;;;;60.20;35.22;;;2.00;99.90;;;;;;5055097;28;20039;-63
2022/01/23 11:31:21;;;;;;;58.25;35.17;;;2.00;99.90;;;;;;5077586;28;20498;-63
2022/01/23 11:33:50;;;;;;;52.80;32.00;;;2.10;99.90;;;;;;5072251;28;20512;-62
2022/01/23 11:36:18;;;;;;;53.60;31.77;;;1.90;99.90;;;;;;5065267;28;20036;-63
2022/01/23 11:38:46;;;;;;;61.13;35.38;;;1.70;99.90;;;;;;5063725;28;20120;-63
2022/01/23 11:54:51;;;;;;;60.28;34.92;;;1.40;99.90;;;;;;5059833;28;20063;-63
2022/01/23 11:57:42;;;;;;;63.95;35.22;;;1.20;99.90;;;;;;5056309;28;20059;-62
2022/01/23 12:00:36;;;;;;;64.10;35.97;;;1.20;99.90;;;;;;5074269;28;20036;-64
2022/01/23 12:03:11;;;;;;;61.88;35.42;;;1.30;99.90;;;;;;5080673;28;20082;-65
2022/01/23 12:05:39;;;;;;;66.43;35.78;;;1.20;99.90;;;;;;5094476;28;20115;-63
2022/01/23 12:08:30;;;;;;;77.35;39.53;;;1.10;99.90;;;;;;5076208;28;20032;-63
2022/01/23 12:16:33;;;;;;;65.03;35.20;;;1.10;99.90;;;;;;5073492;28;20437;-62
2022/01/23 12:19:20;;;;;;;61.55;33.92;;;1.20;99.90;;;;;;5056687;28;20041;-62
2022/01/23 12:21:48;;;;;;;55.40;32.42;;;1.10;99.90;;;;;;5073456;28;20093;-63
2022/01/23 12:24:16;;;;;;;56.65;31.92;;;1.10;99.90;;;;;;5055700;28;20068;-63
2022/01/23 12:26:43;;;;;;;63.13;35.38;;;1.00;99.90;;;;;;5074201;28;20032;-64
2022/01/23 12:29:13;;;;;;;64.20;35.78;;;1.10;99.90;;;;;;5073789;28;20065;-62
2022/01/23 12:31:41;;;;;;;71.60;38.88;;;1.00;99.90;;;;;;5073664;28;20411;-63
2022/01/23 12:34:08;;;;;;;62.53;35.70;;;1.10;99.90;;;;;;5073191;28;20479;-63
2022/01/23 12:36:45;;;;;;;69.25;37.17;;;1.00;99.90;;;;;;5055734;28;20033;-63
2022/01/23 12:39:12;;;;;;;67.30;37.65;;;0.90;99.90;;;;;;5052261;28;20045;-63
2022/01/23 12:41:40;;;;;;;63.15;38.88;;;0.90;99.90;;;;;;5072903;28;20120;-64
2022/01/23 12:44:23;;;;;;;65.03;37.25;;;0.90;99.90;;;;;;5072119;28;20036;-63
2022/01/23 12:46:52;;;;;;;64.85;35.10;;;0.90;99.90;;;;;;5066869;28;20053;-63
2022/01/23 12:49:32;;;;;;;59.65;35.20;;;0.90;99.90;;;;;;5072926;28;20032;-63
2022/01/23 12:52:09;;;;;;;62.50;34.72;;;0.90;99.90;;;;;;5073229;28;20501;-64
2022/01/23 12:54:48;;;;;;;59.42;34.17;;;0.90;99.90;;;;;;5055336;28;20033;-63
2022/01/23 12:57:17;;;;;;;60.55;37.25;;;0.90;99.90;;;;;;5058218;28;20029;-63
2022/01/23 12:59:54;;;;;;;69.03;39.13;;;0.90;99.90;;;;;;5070738;28;20016;-63
2022/01/23 13:02:22;;;;;;;76.90;42.55;;;0.90;99.90;;;;;;5085708;28;20036;-63
2022/01/23 13:04:51;;;;;;;73.47;43.75;;;0.80;99.90;;;;;;5074435;28;20082;-62
2022/01/23 13:07:28;;;;;;;79.75;47.13;;;0.80;99.90;;;;;;5092851;28;20088;-63
2022/01/23 13:10:05;;;;;;;92.85;50.22;;;0.80;99.90;;;;;;5074508;28;20039;-63
2022/01/23 13:15:20;;;;;;;87.07;51.60;;;1.00;99.90;;;;;;5093155;28;20028;-64
2022/01/23 13:18:11;;;;;;;88.03;49.95;;;1.00;99.90;;;;;;5075552;28;20024;-62
2022/01/23 13:31:59;;;;;;;99.90;57.67;;;0.90;99.90;;;;;;5092958;28;20493;-62
2022/01/23 13:34:38;;;;;;;80.18;48.70;;;0.80;99.90;;;;;;5079502;28;20032;-62
2022/01/23 13:37:08;;;;;;;74.55;41.30;;;0.80;99.90;;;;;;5095131;28;20039;-62
2022/01/23 13:39:54;;;;;;;64.70;38.00;;;0.80;99.90;;;;;;5113349;28;20416;-64
2022/01/23 13:51:18;;;;;;;70.70;40.28;;;0.70;99.90;;;;;;5092181;28;20031;-63
2022/01/23 13:59:37;;;;;;;77.60;42.80;;;0.80;99.90;;;;;;5092560;28;20038;-66
2022/01/23 14:02:18;;;;;;;78.10;44.30;;;0.80;99.90;;;;;;5092397;28;20059;-64
2022/01/23 14:04:52;;;;;;;78.40;43.67;;;0.70;99.90;;;;;;5092637;28;20038;-64
2022/01/23 14:07:20;;;;;;;78.80;44.25;;;0.70;99.90;;;;;;5092629;28;20032;-64
2022/01/23 14:10:19;;;;;;;77.68;43.80;;;0.60;99.90;;;;;;5094867;28;20077;-63
2022/01/23 14:12:48;;;;;;;68.85;40.72;;;0.60;99.90;;;;;;5092628;28;20031;-64
2022/01/23 14:15:21;;;;;;;72.57;41.78;;;0.60;99.90;;;;;;5092561;28;20139;-64
2022/01/23 14:18:06;;;;;;;85.15;47.88;;;0.60;99.90;;;;;;5091179;28;20474;-64
2022/01/23 14:20:36;;;;;;;85.97;42.15;;;0.60;99.90;;;;;;5091578;28;20032;-63
2022/01/23 14:23:23;;;;;;;73.18;43.05;;;0.70;99.90;;;;;;5074358;28;20498;-63
2022/01/23 14:25:53;;;;;;;73.05;42.67;;;0.50;99.90;;;;;;5092415;28;20428;-63
2022/01/23 14:28:41;;;;;;;71.57;40.42;;;0.60;99.90;;;;;;5092357;28;20035;-64
2022/01/23 14:31:17;;;;;;;75.22;42.65;;;0.70;99.90;;;;;;5078270;28;20040;-64
2022/01/23 14:33:47;;;;;;;75.45;44.90;;;0.70;99.90;;;;;;5092389;28;20028;-63
2022/01/23 14:36:22;;;;;;;70.15;40.00;;;0.80;99.90;;;;;;5074228;28;20038;-64
2022/01/23 14:39:04;;;;;;;72.70;44.47;;;0.70;99.90;;;;;;5092746;28;20044;-64
2022/01/23 14:41:40;;;;;;;61.08;38.08;;;0.70;99.90;;;;;;5092432;28;20060;-63
2022/01/23 14:44:21;;;;;;;67.00;39.03;;;0.70;99.90;;;;;;5073966;28;20543;-64
2022/01/23 14:46:49;;;;;;;71.15;38.80;;;0.70;99.90;;;;;;5073968;28;20036;-64
2022/01/23 14:49:22;;;;;;;60.75;38.42;;;0.60;99.90;;;;;;5074099;28;20040;-64
2022/01/23 14:51:49;;;;;;;60.33;36.38;;;0.80;99.90;;;;;;5074007;28;20036;-63
2022/01/23 14:54:17;;;;;;;62.47;37.28;;;0.70;99.90;;;;;;5074118;28;20032;-63
2022/01/23 14:56:44;;;;;;;67.85;39.80;;;0.70;99.90;;;;;;5073803;28;20039;-63
2022/01/23 14:59:11;;;;;;;68.13;40.40;;;0.60;99.90;;;;;;5073896;28;20425;-63
2022/01/23 15:01:39;;;;;;;67.28;39.13;;;0.60;99.90;;;;;;5093430;28;20047;-64
2022/01/23 15:04:08;;;;;;;64.97;38.85;;;0.60;99.90;;;;;;5095475;28;20032;-64
2022/01/23 15:06:36;;;;;;;66.65;39.63;;;0.60;99.90;;;;;;5095317;28;20032;-64
2022/01/23 15:09:08;;;;;;;68.13;38.20;;;0.60;99.90;;;;;;5095790;28;20043;-63
2022/01/23 15:11:35;;;;;;;70.28;40.33;;;0.70;99.90;;;;;;5095669;28;20158;-64
2022/01/23 15:14:02;;;;;;;65.18;38.80;;;0.60;99.90;;;;;;5095721;28;20382;-65
2022/01/23 15:16:28;;;;;;;68.07;37.67;;;0.60;99.90;;;;;;5077249;28;20043;-63
2022/01/23 15:18:55;;;;;;;69.80;40.95;;;0.50;99.90;;;;;;5095042;28;20505;-64
2022/01/23 15:21:21;;;;;;;69.38;41.65;;;0.60;99.90;;;;;;5094975;28;20024;-63
2022/01/23 15:23:47;;;;;;;72.95;43.03;;;0.50;99.90;;;;;;5076767;28;20062;-65
2022/01/23 15:26:14;;;;;;;64.18;40.33;;;0.50;99.90;;;;;;5094801;28;20043;-64
2022/01/23 15:28:40;;;;;;;63.40;35.78;;;0.50;99.90;;;;;;5074128;28;20478;-63
2022/01/23 15:31:07;;;;;;;60.00;35.42;;;0.50;99.90;;;;;;5094793;28;20024;-64
2022/01/23 15:33:33;;;;;;;66.53;39.47;;;0.60;99.90;;;;;;5094546;28;20036;-63
2022/01/23 15:35:59;;;;;;;64.13;40.83;;;0.60;99.90;;;;;;5094450;28;20427;-64
2022/01/23 15:38:29;;;;;;;67.88;39.65;;;0.70;99.90;;;;;;5094531;28;20031;-64
2022/01/23 15:40:55;;;;;;;62.28;33.88;;;0.70;99.90;;;;;;5094960;28;20139;-63
2022/01/23 15:43:22;;;;;;;59.75;34.53;;;0.70;99.90;;;;;;5095281;28;20036;-63
2022/01/23 15:45:49;;;;;;;60.97;36.00;;;0.80;99.90;;;;;;5094354;28;20028;-66
2022/01/23 15:48:16;;;;;;;58.15;34.42;;;0.70;99.90;;;;;;5076845;28;20032;-63
2022/01/23 15:50:42;;;;;;;68.18;36.28;;;0.60;99.90;;;;;;5094648;28;20035;-63
2022/01/23 15:53:08;;;;;;;65.43;38.22;;;0.60;99.90;;;;;;5076463;28;20123;-63
2022/01/23 15:55:35;;;;;;;65.88;38.13;;;0.50;99.90;;;;;;5094112;28;20085;-64
2022/01/23 15:58:02;;;;;;;66.20;37.85;;;0.50;99.90;;;;;;5094489;28;20036;-63
2022/01/23 16:00:28;;;;;;;66.20;40.13;;;0.60;99.90;;;;;;5094600;28;20041;-63
2022/01/23 16:02:54;;;;;;;65.40;40.08;;;0.60;99.90;;;;;;5094319;28;20089;-64
2022/01/23 16:05:20;;;;;;;66.63;39.30;;;0.60;99.90;;;;;;5094499;28;20028;-64
2022/01/23 16:07:47;;;;;;;70.55;38.60;;;0.70;99.90;;;;;;5087037;28;20024;-63
2022/01/23 16:10:13;;;;;;;66.30;40.42;;;0.70;99.90;;;;;;5075284;28;20086;-64
2022/01/23 16:12:41;;;;;;;65.65;39.70;;;0.70;99.90;;;;;;5090961;28;20032;-64
2022/01/23 16:15:11;;;;;;;66.85;38.85;;;0.70;99.90;;;;;;5092051;28;20097;-64
2022/01/23 16:17:37;;;;;;;66.47;36.67;;;0.70;99.90;;;;;;5076166;28;20032;-63
2022/01/23 16:20:04;;;;;;;61.40;35.83;;;0.60;99.90;;;;;;5093496;28;20039;-64
2022/01/23 16:22:30;;;;;;;63.83;37.38;;;0.60;99.90;;;;;;5076102;28;20039;-62
2022/01/23 16:24:57;;;;;;;68.10;38.20;;;0.60;99.90;;;;;;5094004;28;20166;-62